createdAt,value
2023-04-14T00:01:50.980Z,12.70
2023-04-14T00:04:54.135Z,12.60
2023-04-14T00:07:57.273Z,10.90
2023-04-14T00:10:59.955Z,14.52
2023-04-14T00:14:03.531Z,14.07
2023-04-14T00:17:06.409Z,14.63
2023-04-14T00:20:09.523Z,11.82
2023-04-14T00:23:12.317Z,13.20
2023-04-14T00:26:14.933Z,13.93
2023-04-14T00:29:19.815Z,14.18
2023-04-14T00:32:23.061Z,22.00
2023-04-14T00:35:29.453Z,12.97
2023-04-14T00:38:33.529Z,12.85
2023-04-14T00:41:39.289Z,12.82
2023-04-14T00:44:42.184Z,12.75
2023-04-14T00:47:50.991Z,13.82
2023-04-14T00:50:53.782Z,20.42
2023-04-14T00:53:57.098Z,13.10
2023-04-14T00:57:00.041Z,15.25
2023-04-14T01:00:07.629Z,25.15
2023-04-14T01:03:11.102Z,14.00
2023-04-14T01:06:15.146Z,17.92
2023-04-14T01:09:18.658Z,15.63
2023-04-14T01:12:52.306Z,15.60
2023-04-14T01:16:20.098Z,18.40
2023-04-14T01:19:38.199Z,14.88
2023-04-14T01:22:53.838Z,32.65
2023-04-14T01:26:04.645Z,16.48
2023-04-14T01:29:36.354Z,14.27
2023-04-14T01:32:46.680Z,16.63
2023-04-14T01:35:57.030Z,18.95
2023-04-14T01:39:04.007Z,15.27
2023-04-14T01:42:12.752Z,21.02
2023-04-14T01:45:30.489Z,20.52
2023-04-14T01:48:34.921Z,10.40
2023-04-14T01:51:42.757Z,12.35
2023-04-14T01:54:54.561Z,14.25
2023-04-14T01:58:00.979Z,16.92
2023-04-14T02:01:08.966Z,14.20
2023-04-14T02:04:17.257Z,13.38
2023-04-14T02:07:23.891Z,17.77
2023-04-14T02:10:30.406Z,11.68
2023-04-14T02:13:34.468Z,10.02
2023-04-14T02:16:42.899Z,16.55
2023-04-14T02:19:47.245Z,11.73
2023-04-14T02:22:51.290Z,19.13
2023-04-14T02:26:19.890Z,15.57
2023-04-14T02:29:24.555Z,13.20
2023-04-14T02:32:31.149Z,14.93
2023-04-14T02:35:53.745Z,14.15
2023-04-14T02:39:01.545Z,15.48
2023-04-14T02:42:17.174Z,18.70
2023-04-14T02:45:28.163Z,15.05
2023-04-14T02:48:40.561Z,16.52
2023-04-14T02:51:46.814Z,18.65
2023-04-14T02:54:54.065Z,16.27
2023-04-14T02:58:02.320Z,13.05
2023-04-14T03:01:11.201Z,13.15
2023-04-14T03:04:24.556Z,13.40
2023-04-14T03:07:29.071Z,16.88
2023-04-14T03:10:33.423Z,12.27
2023-04-14T03:13:40.905Z,13.50
2023-04-14T03:16:45.190Z,11.82
2023-04-14T03:19:50.149Z,10.30
2023-04-14T03:23:07.090Z,8.80
2023-04-14T03:26:23.241Z,7.30
2023-04-14T03:29:28.783Z,5.13
2023-04-14T03:32:37.659Z,6.93
2023-04-14T03:35:42.393Z,8.35
2023-04-14T03:38:50.858Z,9.93
2023-04-14T03:42:02.617Z,12.65
2023-04-14T03:45:07.120Z,6.78
2023-04-14T03:48:14.400Z,2.95
2023-04-14T03:51:23.426Z,7.80
2023-04-14T03:54:28.608Z,6.80
2023-04-14T03:57:32.665Z,3.63
2023-04-14T04:00:37.063Z,4.72
2023-04-14T04:03:42.035Z,5.28
2023-04-14T04:06:46.725Z,3.22
2023-04-14T04:09:52.011Z,12.43
2023-04-14T04:12:58.695Z,13.63
2023-04-14T04:16:03.034Z,11.43
2023-04-14T04:19:09.135Z,9.47
2023-04-14T04:22:15.627Z,5.60
2023-04-14T04:25:22.381Z,4.20
2023-04-14T04:28:43.695Z,5.35
2023-04-14T04:31:48.095Z,6.88
2023-04-14T04:34:52.356Z,10.80
2023-04-14T04:37:57.150Z,8.65
2023-04-14T04:41:01.019Z,7.38
2023-04-14T04:44:07.131Z,8.77
2023-04-14T04:47:11.025Z,9.02
2023-04-14T04:50:18.973Z,13.10
2023-04-14T04:53:22.837Z,10.27
2023-04-14T04:56:27.115Z,9.70
2023-04-14T04:59:30.733Z,10.05
2023-04-14T05:02:34.336Z,9.45
2023-04-14T05:05:38.426Z,14.02
2023-04-14T05:08:41.788Z,11.57
2023-04-14T05:11:45.399Z,12.57
2023-04-14T05:14:48.922Z,10.30
2023-04-14T05:17:56.443Z,10.98
2023-04-14T05:21:08.466Z,10.23
2023-04-14T05:24:12.080Z,10.75
2023-04-14T05:27:15.482Z,9.80
2023-04-14T05:30:18.745Z,12.77
2023-04-14T05:33:22.817Z,8.85
2023-04-14T05:36:28.630Z,8.67
2023-04-14T05:39:31.958Z,9.38
2023-04-14T05:42:35.565Z,12.02
2023-04-14T05:45:39.715Z,14.48
2023-04-14T05:48:43.061Z,9.45
2023-04-14T05:51:46.628Z,10.77
2023-04-14T05:54:50.518Z,7.32
2023-04-14T05:57:54.383Z,9.65
2023-04-14T06:00:58.263Z,7.95
2023-04-14T06:04:03.581Z,8.48
2023-04-14T06:07:07.476Z,7.75
2023-04-14T06:10:14.150Z,9.40
2023-04-14T06:13:17.591Z,9.10
2023-04-14T06:16:24.221Z,6.60
2023-04-14T06:19:27.348Z,8.63
2023-04-14T06:22:30.826Z,10.30
2023-04-14T06:25:37.167Z,8.70
2023-04-14T06:28:43.273Z,8.10
2023-04-14T06:31:50.165Z,7.63
2023-04-14T06:34:53.961Z,10.10
2023-04-14T06:37:57.271Z,8.00
2023-04-14T06:41:00.695Z,7.10
2023-04-14T06:44:04.173Z,7.07
2023-04-14T06:47:07.848Z,10.15
2023-04-14T06:50:12.830Z,12.82
2023-04-14T06:53:16.014Z,10.00
2023-04-14T06:56:18.957Z,10.43
2023-04-14T06:59:28.166Z,10.05
2023-04-14T07:02:31.714Z,10.30
2023-04-14T07:05:34.660Z,9.23
2023-04-14T07:08:38.126Z,8.85
2023-04-14T07:11:41.190Z,8.20
2023-04-14T07:14:51.888Z,8.38
2023-04-14T07:17:54.834Z,8.48
2023-04-14T07:20:59.069Z,13.02
2023-04-14T07:24:02.324Z,9.73
2023-04-14T07:27:07.677Z,9.75
2023-04-14T07:30:10.902Z,11.20
2023-04-14T07:33:14.037Z,15.60
2023-04-14T07:36:17.331Z,11.07
2023-04-14T07:39:22.909Z,9.43
2023-04-14T07:42:25.730Z,10.48
2023-04-14T07:45:28.676Z,11.30
2023-04-14T07:48:36.158Z,11.10
2023-04-14T07:51:39.063Z,13.98
2023-04-14T07:54:42.252Z,16.00
2023-04-14T07:57:45.342Z,12.80
2023-04-14T08:00:48.605Z,14.82
2023-04-14T08:03:51.641Z,11.23
2023-04-14T08:06:54.541Z,17.45
2023-04-14T08:09:57.441Z,12.82
2023-04-14T08:13:03.564Z,15.90
2023-04-14T08:16:06.761Z,11.83
2023-04-14T08:19:09.598Z,11.80
2023-04-14T08:22:12.373Z,13.48
2023-04-14T08:25:15.593Z,13.93
2023-04-14T08:28:18.768Z,11.45
2023-04-14T08:31:25.833Z,14.25
2023-04-14T08:37:34.074Z,14.63
2023-04-14T08:40:39.490Z,14.57
2023-04-14T08:43:42.343Z,12.55
2023-04-14T08:46:46.054Z,12.75
2023-04-14T08:49:59.261Z,12.55
2023-04-14T08:53:04.669Z,17.27
2023-04-14T08:56:10.141Z,13.90
2023-04-14T08:59:12.963Z,12.13
2023-04-14T09:02:16.190Z,14.70
2023-04-14T09:05:19.138Z,12.15
2023-04-14T09:08:22.067Z,13.52
2023-04-14T09:11:25.092Z,15.32
2023-04-14T09:14:30.549Z,14.80
2023-04-14T09:17:33.496Z,13.10
2023-04-14T09:20:41.083Z,12.18
2023-04-14T09:23:44.624Z,13.48
2023-04-14T09:26:47.794Z,12.95
2023-04-14T09:29:51.804Z,16.27
2023-04-14T09:32:54.832Z,18.92
2023-04-14T09:35:57.765Z,14.38
2023-04-14T09:39:00.820Z,12.90
2023-04-14T09:42:04.513Z,21.10
2023-04-14T09:45:08.631Z,14.23
2023-04-14T09:48:15.664Z,11.70
2023-04-14T09:54:26.113Z,13.23
2023-04-14T10:00:32.707Z,12.50
2023-04-14T10:03:57.693Z,11.40
2023-04-14T10:07:01.404Z,12.15
2023-04-14T10:10:08.123Z,12.75
2023-04-14T10:13:15.277Z,13.18
2023-04-14T10:19:22.145Z,8.82
2023-04-14T10:22:28.038Z,12.35
2023-04-14T10:25:31.701Z,11.20
2023-04-14T10:28:36.330Z,10.18
2023-04-14T10:32:04.185Z,10.18
2023-04-14T10:35:10.669Z,10.38
2023-04-14T10:38:13.925Z,12.00
2023-04-14T10:41:16.706Z,11.10
2023-04-14T10:44:26.718Z,11.65
2023-04-14T10:47:29.951Z,10.27
2023-04-14T10:50:47.966Z,12.13
2023-04-14T10:53:52.960Z,9.10
2023-04-14T10:57:22.795Z,9.52
2023-04-14T11:00:28.046Z,11.45
2023-04-14T11:03:33.037Z,10.90
2023-04-14T11:06:48.735Z,10.43
2023-04-14T11:09:51.901Z,11.93
2023-04-14T11:13:06.335Z,12.43
2023-04-14T11:16:09.394Z,9.40
2023-04-14T11:19:15.851Z,11.45
2023-04-14T11:22:41.902Z,8.07
2023-04-14T11:25:45.814Z,8.98
2023-04-14T11:28:48.709Z,9.32
2023-04-14T11:32:05.983Z,10.98
2023-04-14T11:35:11.612Z,11.68
2023-04-14T11:38:15.647Z,10.70
2023-04-14T11:41:19.260Z,9.95
2023-04-14T11:44:22.716Z,11.18
2023-04-14T11:47:25.799Z,10.73
2023-04-14T11:50:31.604Z,10.52
2023-04-14T11:53:34.979Z,12.82
2023-04-14T11:56:37.836Z,15.98
2023-04-14T11:59:44.820Z,11.10
2023-04-14T12:05:57.210Z,11.88
2023-04-14T12:09:04.051Z,7.70
2023-04-14T12:12:12.341Z,11.27
2023-04-14T12:15:15.297Z,12.50
2023-04-14T12:21:21.600Z,5.25
2023-04-14T12:24:24.466Z,3.78
2023-04-14T12:27:27.919Z,6.00
2023-04-14T12:30:30.730Z,5.70
2023-04-14T12:33:34.052Z,4.30
2023-04-14T12:36:49.581Z,8.55
2023-04-14T12:39:58.775Z,6.57
2023-04-14T12:43:01.681Z,5.75
2023-04-14T12:46:05.951Z,4.28
2023-04-14T12:49:32.163Z,4.43
2023-04-14T12:52:40.070Z,4.40
2023-04-14T12:55:43.238Z,7.32
2023-04-14T12:58:51.533Z,5.18
2023-04-14T13:01:54.776Z,5.15
2023-04-14T13:04:58.156Z,3.45
2023-04-14T13:08:01.213Z,8.18
2023-04-14T13:11:04.227Z,10.15
2023-04-14T13:14:07.128Z,10.48
2023-04-14T13:17:09.908Z,9.20
2023-04-14T13:20:12.804Z,9.73
2023-04-14T13:23:16.348Z,13.52
2023-04-14T13:26:19.161Z,11.05
2023-04-14T13:29:22.301Z,10.00
2023-04-14T13:32:25.042Z,13.90
2023-04-14T13:35:27.814Z,13.65
2023-04-14T13:38:33.959Z,23.80
2023-04-14T13:41:36.742Z,13.63
2023-04-14T13:44:39.571Z,12.02
2023-04-14T13:47:42.578Z,9.07
2023-04-14T13:50:45.432Z,7.97
2023-04-14T13:53:48.352Z,12.40
2023-04-14T13:56:51.426Z,8.82
2023-04-14T13:59:54.119Z,7.43
2023-04-14T14:02:57.270Z,11.50
2023-04-14T14:06:00.529Z,9.23
2023-04-14T14:09:06.282Z,11.55
2023-04-14T14:12:12.093Z,7.63
2023-04-14T14:15:15.268Z,8.77
2023-04-14T14:18:18.016Z,8.90
2023-04-14T14:21:20.788Z,7.15
2023-04-14T14:24:23.589Z,8.32
2023-04-14T14:27:26.596Z,7.78
2023-04-14T14:30:29.361Z,9.27
2023-04-14T14:33:32.138Z,20.08
2023-04-14T14:36:35.098Z,19.67
2023-04-14T14:39:38.073Z,10.73
2023-04-14T14:42:41.021Z,6.60
2023-04-14T14:45:43.918Z,10.20
2023-04-14T14:48:47.371Z,6.05
2023-04-14T14:51:50.365Z,8.18
2023-04-14T14:54:53.954Z,22.20
2023-04-14T14:57:59.031Z,8.27
2023-04-14T15:01:01.870Z,10.32
2023-04-14T15:04:06.782Z,10.27
2023-04-14T15:07:09.663Z,7.03
2023-04-14T15:10:12.444Z,6.53
2023-04-14T15:13:15.516Z,7.93
2023-04-14T15:16:18.473Z,11.20
2023-04-14T15:19:21.332Z,6.15
2023-04-14T15:22:24.143Z,6.85
2023-04-14T15:25:26.922Z,7.72
2023-04-14T15:28:29.832Z,6.35
2023-04-14T15:31:32.653Z,9.10
2023-04-14T15:34:35.332Z,14.38
2023-04-14T15:37:38.148Z,11.05
2023-04-14T15:40:40.981Z,8.45
2023-04-14T15:43:43.874Z,8.10
2023-04-14T15:46:46.791Z,7.72
2023-04-14T15:49:53.098Z,6.57
2023-04-14T15:53:13.110Z,9.32
2023-04-14T15:56:16.185Z,5.40
2023-04-14T15:59:19.416Z,5.80
2023-04-14T16:02:22.291Z,5.75
2023-04-14T16:05:25.215Z,6.63
2023-04-14T16:08:28.351Z,6.93
2023-04-14T16:11:31.705Z,7.45
2023-04-14T16:14:35.731Z,7.82
2023-04-14T16:17:38.526Z,10.45
2023-04-14T16:20:41.636Z,16.83
2023-04-14T16:23:44.531Z,16.45
2023-04-14T16:26:48.478Z,10.60
2023-04-14T16:29:51.503Z,23.13
2023-04-14T16:32:54.391Z,6.60
2023-04-14T16:35:57.518Z,5.75
2023-04-14T16:39:00.664Z,8.13
2023-04-14T16:42:04.036Z,7.72
2023-04-14T16:45:07.750Z,7.15
2023-04-14T16:48:10.851Z,10.98
2023-04-14T16:51:13.912Z,14.23
2023-04-14T16:54:17.031Z,13.65
2023-04-14T16:57:20.108Z,5.13
2023-04-14T17:00:22.984Z,6.63
2023-04-14T17:03:26.063Z,3.78
2023-04-14T17:06:29.357Z,2.70
2023-04-14T17:09:32.680Z,2.38
2023-04-14T17:12:35.619Z,3.00
2023-04-14T17:15:39.431Z,1.88
2023-04-14T17:18:43.202Z,2.35
2023-04-14T17:21:46.298Z,1.67
2023-04-14T17:24:49.335Z,2.33
2023-04-14T17:27:52.512Z,2.45
2023-04-14T17:30:56.054Z,3.00
2023-04-14T17:33:59.291Z,3.83
2023-04-14T17:37:02.635Z,3.45
2023-04-14T17:40:06.959Z,6.32
2023-04-14T17:43:09.719Z,4.57
2023-04-14T17:46:12.589Z,4.25
2023-04-14T17:49:15.554Z,2.45
2023-04-14T17:52:21.086Z,4.88
2023-04-14T17:55:23.979Z,2.90
2023-04-14T17:58:27.410Z,4.65
2023-04-14T18:01:30.473Z,3.10
2023-04-14T18:04:33.506Z,2.88
2023-04-14T18:07:37.657Z,3.25
2023-04-14T18:11:02.332Z,5.35
2023-04-14T18:14:09.164Z,3.40
2023-04-14T18:17:15.155Z,4.57
2023-04-14T18:20:26.875Z,2.28
2023-04-14T18:23:39.127Z,5.90
2023-04-14T18:26:49.921Z,3.05
2023-04-14T18:29:54.600Z,2.78
2023-04-14T18:32:57.715Z,2.97
2023-04-14T18:36:07.097Z,3.17
2023-04-14T18:39:10.104Z,3.30
2023-04-14T18:42:13.382Z,3.28
2023-04-14T18:45:16.875Z,4.65
2023-04-14T18:48:20.386Z,4.72
2023-04-14T18:51:23.295Z,4.07
2023-04-14T18:54:26.093Z,4.90
2023-04-14T18:57:29.512Z,3.22
2023-04-14T19:00:33.987Z,4.07
2023-04-14T19:03:37.041Z,4.82
2023-04-14T19:06:40.923Z,5.78
2023-04-14T19:09:43.759Z,6.07
2023-04-14T19:12:46.588Z,6.47
2023-04-14T19:15:49.551Z,3.90
2023-04-14T19:18:52.766Z,4.68
2023-04-14T19:21:58.073Z,5.35
2023-04-14T19:25:01.317Z,4.95
2023-04-14T19:28:04.631Z,4.18
2023-04-14T19:31:07.507Z,5.13
2023-04-14T19:34:10.805Z,4.18
2023-04-14T19:37:13.919Z,3.90
2023-04-14T19:40:17.119Z,5.32
2023-04-14T19:43:20.332Z,4.07
2023-04-14T19:46:23.207Z,3.58
2023-04-14T19:49:26.589Z,2.95
2023-04-14T19:52:29.528Z,3.08
2023-04-14T19:55:32.414Z,2.42
2023-04-14T19:58:36.853Z,2.60
2023-04-14T20:01:39.744Z,2.45
2023-04-14T20:04:44.145Z,2.83
2023-04-14T20:07:46.869Z,1.90
2023-04-14T20:10:52.378Z,2.03
2023-04-14T20:13:55.075Z,2.55
2023-04-14T20:16:57.967Z,2.60
2023-04-14T20:20:01.995Z,2.55
2023-04-14T20:23:06.189Z,2.20
2023-04-14T20:26:11.181Z,2.03
2023-04-14T20:29:13.989Z,1.92
2023-04-14T20:32:16.856Z,1.90
2023-04-14T20:35:20.377Z,3.03
2023-04-14T20:38:23.498Z,3.58
2023-04-14T20:41:26.275Z,3.47
2023-04-14T20:44:29.124Z,2.72
2023-04-14T20:47:34.446Z,3.08
2023-04-14T20:50:37.589Z,1.90
2023-04-14T20:53:40.410Z,2.90
2023-04-14T20:56:43.316Z,1.50
2023-04-14T20:59:46.121Z,2.97
2023-04-14T21:02:49.766Z,2.13
2023-04-14T21:05:52.925Z,2.70
2023-04-14T21:08:56.169Z,1.98
2023-04-14T21:12:15.294Z,2.72
2023-04-14T21:15:44.097Z,2.13
2023-04-14T21:18:42.006Z,2.45
2023-04-14T21:21:44.868Z,3.20
2023-04-14T21:24:49.097Z,4.50
2023-04-14T21:27:51.844Z,2.97
2023-04-14T21:31:01.478Z,2.85
2023-04-14T21:34:04.878Z,2.97
2023-04-14T21:37:07.769Z,2.50
2023-04-14T21:40:11.814Z,2.72
2023-04-14T21:43:14.711Z,2.45
2023-04-14T21:46:17.517Z,2.38
2023-04-14T21:49:20.336Z,1.90
2023-04-14T21:52:23.310Z,1.83
2023-04-14T21:55:26.062Z,2.00
2023-04-14T21:58:28.994Z,1.10
2023-04-14T22:01:34.753Z,1.45
2023-04-14T22:04:37.762Z,1.52
2023-04-14T22:07:40.481Z,1.55
2023-04-14T22:10:43.798Z,1.40
2023-04-14T22:13:47.545Z,2.22
2023-04-14T22:16:50.356Z,2.05
2023-04-14T22:19:53.999Z,1.63
2023-04-14T22:22:56.683Z,1.65
2023-04-14T22:25:59.467Z,1.35
2023-04-14T22:29:02.422Z,2.53
2023-04-14T22:32:05.717Z,1.80
2023-04-14T22:35:08.698Z,1.35
2023-04-14T22:38:11.827Z,2.10
2023-04-14T22:41:18.787Z,2.38
2023-04-14T22:44:21.874Z,1.85
2023-04-14T22:47:24.744Z,2.10
2023-04-14T22:50:27.574Z,4.88
2023-04-14T22:53:30.206Z,2.85
2023-04-14T22:56:33.376Z,2.50
2023-04-14T22:59:36.137Z,2.97
2023-04-14T23:02:39.085Z,3.22
2023-04-14T23:05:41.822Z,3.40
2023-04-14T23:08:44.537Z,3.53
2023-04-14T23:11:47.350Z,3.30
2023-04-14T23:14:50.017Z,3.15
2023-04-14T23:17:52.750Z,3.15
2023-04-14T23:20:55.396Z,3.63
2023-04-14T23:23:57.975Z,3.65
2023-04-14T23:27:00.806Z,4.18
2023-04-14T23:30:03.708Z,3.22
2023-04-14T23:33:07.092Z,4.05
2023-04-14T23:36:09.692Z,3.00
2023-04-14T23:39:12.944Z,6.78
2023-04-14T23:42:15.836Z,3.63
2023-04-14T23:45:18.403Z,2.90
2023-04-14T23:48:21.171Z,3.58
2023-04-14T23:51:23.843Z,4.03
2023-04-14T23:54:26.540Z,6.40
2023-04-14T23:57:29.492Z,3.33
